Time;durP1;ratioP1;P1;durP2;ratioP2;P2;SDS_P1;SDS_P2;PMS_P1;PMS_P2;Temp;Humidity;BMP_temperature;BMP_pressure;BME280_temperature;BME280_humidity;BME280_pressure;Samples;Min_cycle;Max_cycle;Signal;HPM_P1;HPM_P2
2022/05/20 00:01:57;;;;;;;;;;;;;;;;;;5032396;28;19964;-62
2022/05/20 00:04:23;;;;;;;;;;;;;;;;;;5031393;28;19996;-62
2022/05/20 00:06:49;;;;;;;;;;;;;;;;;;5032286;28;19927;-62
2022/05/20 00:09:15;;;;;;;;;;;;;;;;;;5032020;28;19921;-62
2022/05/20 00:11:41;;;;;;;;;;;;;;;;;;5031617;28;19992;-62
2022/05/20 00:14:07;;;;;;;;;;;;;;;;;;5032161;28;20371;-62
2022/05/20 00:16:35;;;;;;;;;;;;;;;;;;5032063;28;19925;-62
2022/05/20 00:19:00;;;;;;;;;;;;;;;;;;5031520;28;19921;-62
2022/05/20 00:21:26;;;;;;;;;;;;;;;;;;5032044;28;20039;-62
2022/05/20 00:23:52;;;;;;;;;;;;;;;;;;5030760;28;19929;-62
2022/05/20 00:26:18;;;;;;;;;;;;;;;;;;5030150;28;19921;-62
2022/05/20 00:28:48;;;;;;;;;;;;;;;;;;5031877;28;19921;-63
2022/05/20 00:31:14;;;;;;;;;;;;;;;;;;5031960;28;19964;-63
2022/05/20 00:33:40;;;;;;;;;;;;;;;;;;5046341;28;19956;-63
2022/05/20 00:36:06;;;;;;;;;;;;;;;;;;5031904;28;19925;-62
2022/05/20 00:38:32;;;;;;;;;;;;;;;;;;5047242;28;19925;-62
2022/05/20 00:40:58;;;;;;;;;;;;;;;;;;5030964;28;19925;-63
2022/05/20 00:43:24;;;;;;;;;;;;;;;;;;5031720;28;20652;-62
2022/05/20 00:45:50;;;;;;;;;;;;;;;;;;5031528;28;20015;-62
2022/05/20 00:48:16;;;;;;;;;;;;;;;;;;5030815;28;19988;-62
2022/05/20 00:50:42;;;;;;;;;;;;;;;;;;5031482;28;19932;-62
2022/05/20 00:53:08;;;;;;;;;;;;;;;;;;5031349;28;19956;-62
2022/05/20 00:55:34;;;;;;;;;;;;;;;;;;5031001;28;19976;-62
2022/05/20 00:58:00;;;;;;;;;;;;;;;;;;5031837;28;20359;-62
2022/05/20 01:00:26;;;;;;;;;;;;;;;;;;5031646;28;19929;-62
2022/05/20 01:02:52;;;;;;;;;;;;;;;;;;5030939;28;19932;-62
2022/05/20 01:05:18;;;;;;;;;;;;;;;;;;5031683;28;20007;-62
2022/05/20 01:07:44;;;;;;;;;;;;;;;;;;5031642;28;19921;-62
2022/05/20 01:10:10;;;;;;;;;;;;;;;;;;5033741;28;19924;-62
2022/05/20 01:12:36;;;;;;;;;;;;;;;;;;5035419;28;19943;-62
2022/05/20 01:15:02;;;;;;;;;;;;;;;;;;5035334;28;19925;-62
2022/05/20 01:17:28;;;;;;;;;;;;;;;;;;5034630;28;19948;-62
2022/05/20 01:19:54;;;;;;;;;;;;;;;;;;5035041;28;20012;-62
2022/05/20 01:22:19;;;;;;;;;;;;;;;;;;5035008;28;19921;-62
2022/05/20 01:24:45;;;;;;;;;;;;;;;;;;5034428;28;20053;-62
2022/05/20 01:27:11;;;;;;;;;;;;;;;;;;5035116;28;19943;-62
2022/05/20 01:29:37;;;;;;;;;;;;;;;;;;5034592;28;19921;-62
2022/05/20 01:32:03;;;;;;;;;;;;;;;;;;5034679;28;19925;-62
2022/05/20 01:34:29;;;;;;;;;;;;;;;;;;5034548;28;19921;-62
2022/05/20 01:36:55;;;;;;;;;;;;;;;;;;5034786;28;19921;-62
2022/05/20 01:39:21;;;;;;;;;;;;;;;;;;5034462;28;19921;-62
2022/05/20 01:41:47;;;;;;;;;;;;;;;;;;5034190;28;19963;-62
2022/05/20 01:44:13;;;;;;;;;;;;;;;;;;5034705;28;19947;-62
2022/05/20 01:46:39;;;;;;;;;;;;;;;;;;5034647;28;20445;-62
2022/05/20 01:49:05;;;;;;;;;;;;;;;;;;5033934;28;20271;-62
2022/05/20 01:51:31;;;;;;;;;;;;;;;;;;5034611;28;19921;-62
2022/05/20 01:53:57;;;;;;;;;;;;;;;;;;5034577;28;19928;-62
2022/05/20 01:56:23;;;;;;;;;;;;;;;;;;5033759;28;19921;-62
2022/05/20 01:58:49;;;;;;;;;;;;;;;;;;5033094;28;19921;-62
2022/05/20 02:01:15;;;;;;;;;;;;;;;;;;5034395;28;19925;-62
2022/05/20 02:03:41;;;;;;;;;;;;;;;;;;5033712;28;19987;-62
2022/05/20 02:06:07;;;;;;;;;;;;;;;;;;5034344;28;19960;-62
2022/05/20 02:08:33;;;;;;;;;;;;;;;;;;5034289;28;19991;-62
2022/05/20 02:10:59;;;;;;;;;;;;;;;;;;5033615;28;19921;-62
2022/05/20 02:13:25;;;;;;;;;;;;;;;;;;5032912;28;20033;-62
2022/05/20 02:15:51;;;;;;;;;;;;;;;;;;5033987;28;19925;-62
2022/05/20 02:18:16;;;;;;;;;;;;;;;;;;5033558;28;19943;-62
2022/05/20 02:20:42;;;;;;;;;;;;;;;;;;5032702;28;19921;-62
2022/05/20 02:23:08;;;;;;;;;;;;;;;;;;5033950;28;19936;-62
2022/05/20 02:25:34;;;;;;;;;;;;;;;;;;5033285;28;19921;-62
2022/05/20 02:28:00;;;;;;;;;;;;;;;;;;5033459;28;19921;-62
2022/05/20 02:30:26;;;;;;;;;;;;;;;;;;5033971;28;19925;-62
2022/05/20 02:32:52;;;;;;;;;;;;;;;;;;5033201;28;19928;-62
2022/05/20 02:35:18;;;;;;;;;;;;;;;;;;5032259;28;19925;-62
2022/05/20 02:37:44;;;;;;;;;;;;;;;;;;5033669;28;19944;-62
2022/05/20 02:40:10;;;;;;;;;;;;;;;;;;5032765;28;19925;-62
2022/05/20 02:42:36;;;;;;;;;;;;;;;;;;5033322;28;20008;-62
2022/05/20 02:45:02;;;;;;;;;;;;;;;;;;5033445;28;19932;-62
2022/05/20 02:47:31;;;;;;;;;;;;;;;;;;5033067;28;19925;-62
2022/05/20 02:49:57;;;;;;;;;;;;;;;;;;5033322;28;19947;-62
2022/05/20 02:52:23;;;;;;;;;;;;;;;;;;5048777;28;19922;-62
2022/05/20 02:54:49;;;;;;;;;;;;;;;;;;5032852;28;19921;-62
2022/05/20 02:57:16;;;;;;;;;;;;;;;;;;5033207;28;19994;-62
2022/05/20 03:05:11;;;;;;;;;;;;;;;;;;5033199;28;20288;-62
2022/05/20 03:07:37;;;;;;;;;;;;;;;;;;5032942;28;19968;-62
2022/05/20 03:10:03;;;;;;;;;;;;;;;;;;5032351;28;19975;-62
2022/05/20 03:12:29;;;;;;;;;;;;;;;;;;5033187;28;19921;-62
2022/05/20 03:14:55;;;;;;;;;;;;;;;;;;5033073;28;20003;-62
2022/05/20 03:17:21;;;;;;;;;;;;;;;;;;5032354;28;19972;-62
2022/05/20 03:19:47;;;;;;;;;;;;;;;;;;5032819;28;20008;-62
2022/05/20 03:22:13;;;;;;;;;;;;;;;;;;5032817;28;19952;-62
2022/05/20 03:24:39;;;;;;;;;;;;;;;;;;5032210;28;19925;-62
2022/05/20 03:27:05;;;;;;;;;;;;;;;;;;5032588;28;19921;-62
2022/05/20 03:29:32;;;;;;;;;;;;;;;;;;5032748;28;19925;-62
2022/05/20 03:31:58;;;;;;;;;;;;;;;;;;5032007;28;19921;-62
2022/05/20 03:34:24;;;;;;;;;;;;;;;;;;5032803;28;19921;-62
2022/05/20 03:36:50;;;;;;;;;;;;;;;;;;5032818;28;19921;-62
2022/05/20 03:39:16;;;;;;;;;;;;;;;;;;5031867;28;19929;-62
2022/05/20 03:41:42;;;;;;;;;;;;;;;;;;5032565;28;19921;-62
2022/05/20 03:44:08;;;;;;;;;;;;;;;;;;5032193;28;19952;-62
2022/05/20 03:46:34;;;;;;;;;;;;;;;;;;5030641;28;19921;-62
2022/05/20 03:49:00;;;;;;;;;;;;;;;;;;5032241;28;20074;-62
2022/05/20 03:51:26;;;;;;;;;;;;;;;;;;5032443;28;19921;-62
2022/05/20 03:53:52;;;;;;;;;;;;;;;;;;5031943;28;19925;-62
2022/05/20 03:56:18;;;;;;;;;;;;;;;;;;5032334;28;20004;-62
2022/05/20 03:58:44;;;;;;;;;;;;;;;;;;5031927;28;19951;-62
2022/05/20 04:03:55;;;;;;;;;;;;;;;;;;5032044;28;20430;-62
2022/05/20 04:06:20;;;;;;;;;;;;;;;;;;5031932;28;19939;-62
2022/05/20 04:08:46;;;;;;;;;;;;;;;;;;5031557;28;20019;-62
2022/05/20 04:11:13;;;;;;;;;;;;;;;;;;5032272;28;19921;-62
2022/05/20 04:13:39;;;;;;;;;;;;;;;;;;5031929;28;19921;-62
2022/05/20 04:16:05;;;;;;;;;;;;;;;;;;5031367;28;20007;-62
2022/05/20 04:18:31;;;;;;;;;;;;;;;;;;5031965;28;20009;-62
2022/05/20 04:20:57;;;;;;;;;;;;;;;;;;5030911;28;19931;-62
2022/05/20 04:23:23;;;;;;;;;;;;;;;;;;5031396;28;20052;-62
2022/05/20 04:25:49;;;;;;;;;;;;;;;;;;5032004;28;20007;-62
2022/05/20 04:28:15;;;;;;;;;;;;;;;;;;5032057;28;19929;-62
2022/05/20 04:30:41;;;;;;;;;;;;;;;;;;5031206;28;19921;-62
2022/05/20 04:33:07;;;;;;;;;;;;;;;;;;5031936;28;19925;-62
2022/05/20 04:35:33;;;;;;;;;;;;;;;;;;5032004;28;19944;-62
2022/05/20 04:37:59;;;;;;;;;;;;;;;;;;5030724;28;19925;-62
2022/05/20 04:40:25;;;;;;;;;;;;;;;;;;5031469;28;19929;-62
2022/05/20 04:48:20;;;;;;;;;;;;;;;;;;5035943;28;20283;-62
2022/05/20 04:50:46;;;;;;;;;;;;;;;;;;5035709;28;19925;-62
2022/05/20 04:54:49;;;;;;;;;;;;;;;;;;5034826;28;19921;-62
2022/05/20 04:55:58;;;;;;;;;;;;;;;;;;5033433;28;19968;-62
2022/05/20 04:58:25;;;;;;;;;;;;;;;;;;5035175;28;19972;-62
2022/05/20 05:00:51;;;;;;;;;;;;;;;;;;5035127;28;20774;-62
2022/05/20 05:03:18;;;;;;;;;;;;;;;;;;5035397;28;20028;-62
2022/05/20 05:05:44;;;;;;;;;;;;;;;;;;5035562;28;19921;-62
2022/05/20 05:08:10;;;;;;;;;;;;;;;;;;5033176;28;19921;-62
2022/05/20 05:10:36;;;;;;;;;;;;;;;;;;5035411;28;19921;-62
2022/05/20 05:13:02;;;;;;;;;;;;;;;;;;5035438;28;19971;-62
2022/05/20 05:15:28;;;;;;;;;;;;;;;;;;5034463;28;19925;-62
2022/05/20 05:18:09;;;;;;;;;;;;;;;;;;5035256;28;19921;-62
2022/05/20 05:20:35;;;;;;;;;;;;;;;;;;5035299;28;20023;-62
2022/05/20 05:23:01;;;;;;;;;;;;;;;;;;5034295;28;20003;-62
2022/05/20 05:25:27;;;;;;;;;;;;;;;;;;5035141;28;19925;-62
2022/05/20 05:27:53;;;;;;;;;;;;;;;;;;5035019;28;19927;-62
2022/05/20 05:30:19;;;;;;;;;;;;;;;;;;5034203;28;19921;-62
2022/05/20 05:32:45;;;;;;;;;;;;;;;;;;5034555;28;19999;-62
2022/05/20 05:35:11;;;;;;;;;;;;;;;;;;5034840;28;19924;-62
2022/05/20 05:37:37;;;;;;;;;;;;;;;;;;5034107;28;20322;-62
2022/05/20 05:40:03;;;;;;;;;;;;;;;;;;5034350;28;20008;-62
2022/05/20 05:42:29;;;;;;;;;;;;;;;;;;5034754;28;19932;-62
2022/05/20 05:44:56;;;;;;;;;;;;;;;;;;5033831;28;20283;-62
2022/05/20 05:47:22;;;;;;;;;;;;;;;;;;5033960;28;19928;-62
2022/05/20 05:49:47;;;;;;;;;;;;;;;;;;5034405;28;19921;-62
2022/05/20 05:52:13;;;;;;;;;;;;;;;;;;5033904;28;19921;-62
2022/05/20 05:54:39;;;;;;;;;;;;;;;;;;5033824;28;19990;-62
2022/05/20 05:57:06;;;;;;;;;;;;;;;;;;5030141;28;19921;-62
2022/05/20 05:59:32;;;;;;;;;;;;;;;;;;5033223;28;20267;-62
2022/05/20 06:01:58;;;;;;;;;;;;;;;;;;5027240;28;19921;-62
2022/05/20 06:04:24;;;;;;;;;;;;;;;;;;5033734;28;19925;-62
2022/05/20 06:06:50;;;;;;;;;;;;;;;;;;5033606;28;20532;-62
2022/05/20 06:09:16;;;;;;;;;;;;;;;;;;5033707;28;19932;-62
2022/05/20 06:11:43;;;;;;;;;;;;;;;;;;5034048;28;19928;-61
2022/05/20 06:14:09;;;;;;;;;;;;;;;;;;5039559;28;19921;-62
2022/05/20 06:16:35;;;;;;;;;;;;;;;;;;5035422;28;19929;-62
2022/05/20 06:19:01;;;;;;;;;;;;;;;;;;5035702;28;19972;-63
2022/05/20 06:21:27;;;;;;;;;;;;;;;;;;5036107;28;19932;-63
2022/05/20 06:23:53;;;;;;;;;;;;;;;;;;5035318;28;19936;-62
2022/05/20 06:26:19;;;;;;;;;;;;;;;;;;5036925;28;19933;-63
2022/05/20 06:28:45;;;;;;;;;;;;;;;;;;5036511;28;19960;-62
2022/05/20 06:31:11;;;;;;;;;;;;;;;;;;5035482;28;19925;-62
2022/05/20 06:33:37;;;;;;;;;;;;;;;;;;5037072;28;19932;-62
2022/05/20 06:41:32;;;;;;;;;;;;;;;;;;5016922;28;20580;-62
2022/05/20 06:43:58;;;;;;;;;;;;;;;;;;5031844;28;19926;-62
2022/05/20 06:46:24;;;;;;;;;;;;;;;;;;5032360;28;19921;-62
2022/05/20 06:48:50;;;;;;;;;;;;;;;;;;5034444;28;19989;-61
2022/05/20 06:51:17;;;;;;;;;;;;;;;;;;5034019;28;20395;-62
2022/05/20 06:53:43;;;;;;;;;;;;;;;;;;5032465;28;19940;-62
2022/05/20 06:56:09;;;;;;;;;;;;;;;;;;5033738;28;19925;-63
2022/05/20 06:58:35;;;;;;;;;;;;;;;;;;5030103;28;19948;-63
2022/05/20 07:01:01;;;;;;;;;;;;;;;;;;5033433;28;19921;-61
2022/05/20 07:03:27;;;;;;;;;;;;;;;;;;5028506;28;19976;-63
2022/05/20 07:05:53;;;;;;;;;;;;;;;;;;5033548;28;20333;-64
2022/05/20 07:08:19;;;;;;;;;;;;;;;;;;5028763;28;19921;-63
2022/05/20 07:10:45;;;;;;;;;;;;;;;;;;5028389;28;19921;-63
2022/05/20 07:13:11;;;;;;;;;;;;;;;;;;5032711;28;19960;-63
2022/05/20 07:15:37;;;;;;;;;;;;;;;;;;5032744;28;19978;-63
2022/05/20 07:18:03;;;;;;;;;;;;;;;;;;5047551;28;19929;-64
2022/05/20 07:20:29;;;;;;;;;;;;;;;;;;5031475;28;20072;-63
2022/05/20 07:22:54;;;;;;;;;;;;;;;;;;5030521;28;19920;-63
2022/05/20 07:25:20;;;;;;;;;;;;;;;;;;5031165;28;19925;-62
2022/05/20 07:27:46;;;;;;;;;;;;;;;;;;5031754;28;20020;-63
2022/05/20 07:30:12;;;;;;;;;;;;;;;;;;5032181;28;19998;-63
2022/05/20 07:32:38;;;;;;;;;;;;;;;;;;5028949;28;19965;-62
2022/05/20 07:35:04;;;;;;;;;;;;;;;;;;5031738;28;19968;-62
2022/05/20 07:37:30;;;;;;;;;;;;;;;;;;5032401;28;19921;-62
2022/05/20 07:39:56;;;;;;;;;;;;;;;;;;5031142;28;19947;-62
2022/05/20 07:42:22;;;;;;;;;;;;;;;;;;5031196;28;19925;-63
2022/05/20 07:44:48;;;;;;;;;;;;;;;;;;5032902;28;20012;-63
2022/05/20 07:47:18;;;;;;;;;;;;;;;;;;5032615;28;21206;-63
2022/05/20 07:49:44;;;;;;;;;;;;;;;;;;5030104;28;19968;-62
2022/05/20 07:52:10;;;;;;;;;;;;;;;;;;5031621;28;19975;-62
2022/05/20 07:54:36;;;;;;;;;;;;;;;;;;5032084;28;19925;-64
2022/05/20 07:57:02;;;;;;;;;;;;;;;;;;5029631;28;19991;-63
2022/05/20 07:59:30;;;;;;;;;;;;;;;;;;5031219;28;19929;-63
2022/05/20 08:01:56;;;;;;;;;;;;;;;;;;5032803;28;19921;-64
2022/05/20 08:07:07;;;;;;;;;;;;;;;;;;5032617;28;20043;-64
2022/05/20 08:09:33;;;;;;;;;;;;;;;;;;5031694;28;19921;-64
2022/05/20 08:11:59;;;;;;;;;;;;;;;;;;5030294;28;20015;-64
2022/05/20 08:14:26;;;;;;;;;;;;;;;;;;5031035;28;19929;-63
2022/05/20 08:16:52;;;;;;;;;;;;;;;;;;5032566;28;19929;-63
2022/05/20 08:19:18;;;;;;;;;;;;;;;;;;5028895;28;19925;-64
2022/05/20 08:21:44;;;;;;;;;;;;;;;;;;5032139;28;19975;-64
2022/05/20 08:24:10;;;;;;;;;;;;;;;;;;5031470;28;19947;-64
2022/05/20 08:26:36;;;;;;;;;;;;;;;;;;5028795;28;19925;-64
2022/05/20 08:29:03;;;;;;;;;;;;;;;;;;5030708;28;19952;-65
2022/05/20 08:31:28;;;;;;;;;;;;;;;;;;5031884;28;19925;-65
2022/05/20 08:33:54;;;;;;;;;;;;;;;;;;5030432;28;19928;-64
2022/05/20 08:36:20;;;;;;;;;;;;;;;;;;5030402;28;19935;-64
2022/05/20 08:38:47;;;;;;;;;;;;;;;;;;5031383;28;19928;-64
2022/05/20 08:41:13;;;;;;;;;;;;;;;;;;5032469;28;19925;-64
2022/05/20 08:43:39;;;;;;;;;;;;;;;;;;5031557;28;19925;-64
2022/05/20 08:46:05;;;;;;;;;;;;;;;;;;5032639;28;19921;-64
2022/05/20 08:48:32;;;;;;;;;;;;;;;;;;5031317;28;19991;-64
2022/05/20 08:50:58;;;;;;;;;;;;;;;;;;5027625;28;19921;-65
2022/05/20 08:53:24;;;;;;;;;;;;;;;;;;5029419;28;19925;-65
2022/05/20 08:55:50;;;;;;;;;;;;;;;;;;5029869;28;19943;-65
2022/05/20 08:58:16;;;;;;;;;;;;;;;;;;5030687;28;19931;-65
2022/05/20 09:00:43;;;;;;;;;;;;;;;;;;5030643;28;19925;-66
2022/05/20 09:03:10;;;;;;;;;;;;;;;;;;5027545;28;19921;-65
2022/05/20 09:05:36;;;;;;;;;;;;;;;;;;5029791;28;19920;-64
2022/05/20 09:08:03;;;;;;;;;;;;;;;;;;5032754;28;19960;-64
2022/05/20 09:10:30;;;;;;;;;;;;;;;;;;5032848;28;19932;-64
2022/05/20 09:12:56;;;;;;;;;;;;;;;;;;5032917;28;19936;-65
2022/05/20 09:18:06;;;;;;;;;;;;;;;;;;5032828;28;20331;-65
2022/05/20 09:20:32;;;;;;;;;;;;;;;;;;5032117;28;20004;-63
2022/05/20 09:22:59;;;;;;;;;;;;;;;;;;5032643;28;19984;-64
2022/05/20 09:25:26;;;;;;;;;;;;;;;;;;5032713;28;20024;-63
2022/05/20 09:27:52;;;;;;;;;;;;;;;;;;5029931;28;19921;-64
2022/05/20 09:30:17;;;;;;;;;;;;;;;;;;5036116;28;19928;-64
2022/05/20 09:32:43;;;;;;;;;;;;;;;;;;5038146;28;19921;-64
2022/05/20 09:35:09;;;;;;;;;;;;;;;;;;5034972;28;20028;-64
2022/05/20 09:37:35;;;;;;;;;;;;;;;;;;5035786;28;19921;-64
2022/05/20 09:40:01;;;;;;;;;;;;;;;;;;5034091;28;19929;-64
2022/05/20 09:42:27;;;;;;;;;;;;;;;;;;5035857;28;20360;-65
2022/05/20 09:44:54;;;;;;;;;;;;;;;;;;5035825;28;19935;-63
2022/05/20 09:47:20;;;;;;;;;;;;;;;;;;5033999;28;20012;-64
2022/05/20 09:49:48;;;;;;;;;;;;;;;;;;5036185;28;20406;-63
2022/05/20 09:52:14;;;;;;;;;;;;;;;;;;5036647;28;20296;-63
2022/05/20 09:54:40;;;;;;;;;;;;;;;;;;5035954;28;19929;-64
2022/05/20 09:57:05;;;;;;;;;;;;;;;;;;5035973;28;19925;-63
2022/05/20 09:59:32;;;;;;;;;;;;;;;;;;5036225;28;19968;-63
2022/05/20 10:01:58;;;;;;;;;;;;;;;;;;5037091;28;20287;-63
2022/05/20 10:04:24;;;;;;;;;;;;;;;;;;5052242;28;19929;-64
2022/05/20 10:06:49;;;;;;;;;;;;;;;;;;5034996;28;20003;-65
2022/05/20 10:09:15;;;;;;;;;;;;;;;;;;5034172;28;19921;-64
2022/05/20 10:11:41;;;;;;;;;;;;;;;;;;5036197;28;19921;-64
2022/05/20 10:14:07;;;;;;;;;;;;;;;;;;5032597;28;20036;-65
2022/05/20 10:16:33;;;;;;;;;;;;;;;;;;5037301;28;19975;-64
2022/05/20 10:19:00;;;;;;;;;;;;;;;;;;5036253;28;19944;-64
2022/05/20 10:21:26;;;;;;;;;;;;;;;;;;5035872;28;19925;-63
2022/05/20 10:23:52;;;;;;;;;;;;;;;;;;5028285;28;19947;-62
2022/05/20 10:26:18;;;;;;;;;;;;;;;;;;5028674;28;19925;-64
2022/05/20 10:34:27;;;;;;;;;;;;;;;;;;5029580;28;19960;-63
2022/05/20 10:36:53;;;;;;;;;;;;;;;;;;5030744;28;20406;-64
2022/05/20 10:39:19;;;;;;;;;;;;;;;;;;5030984;28;19995;-64
2022/05/20 10:41:45;;;;;;;;;;;;;;;;;;5030814;28;19990;-64
2022/05/20 10:49:40;;;;;;;;;;;;;;;;;;5027510;28;20268;-61
2022/05/20 10:52:07;;;;;;;;;;;;;;;;;;5030919;28;20406;-63
2022/05/20 10:54:33;;;;;;;;;;;;;;;;;;5028220;28;19928;-62
2022/05/20 10:56:59;;;;;;;;;;;;;;;;;;5030447;28;20364;-66
2022/05/20 10:59:25;;;;;;;;;;;;;;;;;;5029594;28;19956;-66
2022/05/20 11:01:51;;;;;;;;;;;;;;;;;;5029950;28;20408;-66
2022/05/20 11:04:18;;;;;;;;;;;;;;;;;;5030883;28;19932;-65
2022/05/20 11:06:44;;;;;;;;;;;;;;;;;;5031627;28;19931;-65
2022/05/20 11:09:10;;;;;;;;;;;;;;;;;;5030465;28;20004;-66
2022/05/20 11:11:36;;;;;;;;;;;;;;;;;;5026665;28;19983;-67
2022/05/20 11:14:02;;;;;;;;;;;;;;;;;;5029506;28;19920;-67
2022/05/20 11:16:28;;;;;;;;;;;;;;;;;;5030351;28;19929;-67
2022/05/20 11:18:54;;;;;;;;;;;;;;;;;;5025929;28;19921;-66
2022/05/20 11:21:20;;;;;;;;;;;;;;;;;;5029992;28;19943;-65
2022/05/20 11:23:47;;;;;;;;;;;;;;;;;;5029048;28;19929;-67
2022/05/20 11:26:13;;;;;;;;;;;;;;;;;;5027339;28;19949;-66
2022/05/20 11:28:39;;;;;;;;;;;;;;;;;;5029718;28;20401;-66
2022/05/20 11:31:05;;;;;;;;;;;;;;;;;;5028271;28;19932;-68
2022/05/20 11:33:31;;;;;;;;;;;;;;;;;;5029290;28;19925;-67
2022/05/20 11:35:59;;;;;;;;;;;;;;;;;;5028045;28;19966;-67
2022/05/20 11:38:25;;;;;;;;;;;;;;;;;;5026794;28;20446;-66
2022/05/20 11:40:51;;;;;;;;;;;;;;;;;;5027981;28;19986;-65
2022/05/20 11:43:17;;;;;;;;;;;;;;;;;;5028491;28;19948;-67
2022/05/20 11:45:43;;;;;;;;;;;;;;;;;;5032679;28;19921;-66
2022/05/20 11:48:09;;;;;;;;;;;;;;;;;;5009987;28;19925;-67
2022/05/20 11:50:35;;;;;;;;;;;;;;;;;;5028934;28;19924;-66
2022/05/20 11:53:01;;;;;;;;;;;;;;;;;;5026581;28;20094;-66
2022/05/20 11:55:27;;;;;;;;;;;;;;;;;;5029509;28;19929;-66
2022/05/20 11:57:53;;;;;;;;;;;;;;;;;;5024994;28;19944;-66
2022/05/20 12:00:19;;;;;;;;;;;;;;;;;;5030012;28;19921;-67
2022/05/20 12:02:45;;;;;;;;;;;;;;;;;;5029400;28;19999;-67
2022/05/20 12:05:11;;;;;;;;;;;;;;;;;;5030509;28;20406;-67
2022/05/20 12:07:37;;;;;;;;;;;;;;;;;;5029445;28;19925;-64
2022/05/20 12:10:03;;;;;;;;;;;;;;;;;;5028431;28;20059;-64
2022/05/20 12:12:29;;;;;;;;;;;;;;;;;;5028328;28;20015;-65
2022/05/20 12:14:55;;;;;;;;;;;;;;;;;;5025626;28;19951;-65
2022/05/20 12:17:21;;;;;;;;;;;;;;;;;;5045199;28;19921;-65
2022/05/20 12:25:16;;;;;;;;;;;;;;;;;;5031239;28;20353;-65
2022/05/20 12:27:42;;;;;;;;;;;;;;;;;;5029588;28;19968;-64
2022/05/20 12:30:08;;;;;;;;;;;;;;;;;;5024416;28;20214;-64
2022/05/20 12:32:34;;;;;;;;;;;;;;;;;;5027924;28;19925;-63
2022/05/20 12:35:00;;;;;;;;;;;;;;;;;;5030118;28;20027;-62
2022/05/20 12:37:26;;;;;;;;;;;;;;;;;;5028930;28;19925;-63
2022/05/20 12:39:52;;;;;;;;;;;;;;;;;;5023309;28;20028;-63
2022/05/20 12:42:18;;;;;;;;;;;;;;;;;;5024383;28;19929;-63
2022/05/20 12:44:44;;;;;;;;;;;;;;;;;;5027127;28;19924;-62
2022/05/20 12:47:10;;;;;;;;;;;;;;;;;;5025733;28;19987;-64
2022/05/20 12:49:35;;;;;;;;;;;;;;;;;;5021587;28;19986;-63
2022/05/20 12:52:02;;;;;;;;;;;;;;;;;;5021387;28;19932;-63
2022/05/20 12:54:28;;;;;;;;;;;;;;;;;;5022216;28;19940;-63
2022/05/20 12:56:54;;;;;;;;;;;;;;;;;;5026628;28;20447;-63
2022/05/20 12:59:20;;;;;;;;;;;;;;;;;;5023965;28;19932;-63
2022/05/20 13:01:46;;;;;;;;;;;;;;;;;;5021123;28;19928;-63
2022/05/20 13:04:11;;;;;;;;;;;;;;;;;;5026365;28;20521;-64
2022/05/20 13:06:37;;;;;;;;;;;;;;;;;;5028642;28;19948;-63
2022/05/20 13:09:04;;;;;;;;;;;;;;;;;;5025156;28;19927;-64
2022/05/20 13:11:30;;;;;;;;;;;;;;;;;;5026724;28;19925;-64
2022/05/20 13:13:56;;;;;;;;;;;;;;;;;;5025885;28;19921;-64
2022/05/20 13:16:23;;;;;;;;;;;;;;;;;;5037913;28;19921;-64
2022/05/20 13:18:49;;;;;;;;;;;;;;;;;;5027118;28;19929;-64
2022/05/20 13:21:18;;;;;;;;;;;;;;;;;;5033956;28;20276;-64
2022/05/20 13:23:43;;;;;;;;;;;;;;;;;;5026763;28;19928;-65
2022/05/20 13:26:09;;;;;;;;;;;;;;;;;;5026067;28;20060;-65
2022/05/20 13:28:35;;;;;;;;;;;;;;;;;;5030151;28;20011;-65
2022/05/20 13:31:01;;;;;;;;;;;;;;;;;;5025584;28;19925;-65
2022/05/20 13:33:27;;;;;;;;;;;;;;;;;;5025181;28;19925;-65
2022/05/20 13:35:53;;;;;;;;;;;;;;;;;;5024871;28;19929;-65
2022/05/20 13:38:19;;;;;;;;;;;;;;;;;;5021678;28;20395;-65
2022/05/20 13:40:45;;;;;;;;;;;;;;;;;;5024677;28;19936;-66
2022/05/20 13:43:11;;;;;;;;;;;;;;;;;;5030430;28;19925;-66
2022/05/20 13:51:06;;;;;;;;;;;;;;;;;;5023525;28;20310;-66
2022/05/20 13:53:32;;;;;;;;;;;;;;;;;;5031909;28;19925;-66
2022/05/20 13:55:58;;;;;;;;;;;;;;;;;;5041452;28;19968;-67
2022/05/20 13:58:24;;;;;;;;;;;;;;;;;;5033307;28;19986;-68
2022/05/20 14:00:50;;;;;;;;;;;;;;;;;;5023147;28;19922;-68
2022/05/20 14:03:16;;;;;;;;;;;;;;;;;;5031250;28;19965;-67
2022/05/20 14:05:42;;;;;;;;;;;;;;;;;;5033405;28;19928;-68
2022/05/20 14:08:08;;;;;;;;;;;;;;;;;;5032739;28;19974;-68
2022/05/20 14:10:34;;;;;;;;;;;;;;;;;;5032543;28;19976;-68
2022/05/20 14:13:00;;;;;;;;;;;;;;;;;;5032734;28;20567;-68
2022/05/20 14:15:26;;;;;;;;;;;;;;;;;;5032360;28;19963;-68
2022/05/20 14:17:52;;;;;;;;;;;;;;;;;;5031815;28;19921;-68
2022/05/20 14:20:18;;;;;;;;;;;;;;;;;;5031233;28;19943;-67
2022/05/20 14:22:44;;;;;;;;;;;;;;;;;;5032729;28;19921;-67
2022/05/20 14:25:14;;;;;;;;;;;;;;;;;;5033054;28;19971;-66
2022/05/20 14:27:40;;;;;;;;;;;;;;;;;;5033582;28;20270;-66
2022/05/20 14:30:06;;;;;;;;;;;;;;;;;;5030642;28;20299;-66
2022/05/20 14:32:32;;;;;;;;;;;;;;;;;;5032117;28;19921;-66
2022/05/20 14:34:58;;;;;;;;;;;;;;;;;;5031630;28;20015;-66
2022/05/20 14:37:24;;;;;;;;;;;;;;;;;;5031205;28;19978;-66
2022/05/20 14:39:50;;;;;;;;;;;;;;;;;;5031237;28;19925;-67
2022/05/20 14:42:16;;;;;;;;;;;;;;;;;;5033068;28;20269;-67
2022/05/20 14:44:42;;;;;;;;;;;;;;;;;;5032543;28;19936;-67
2022/05/20 14:47:14;;;;;;;;;;;;;;;;;;5033211;28;19925;-67
2022/05/20 14:49:40;;;;;;;;;;;;;;;;;;5030410;28;19921;-66
2022/05/20 14:52:06;;;;;;;;;;;;;;;;;;5030910;28;19921;-66
2022/05/20 14:54:32;;;;;;;;;;;;;;;;;;5031409;28;19921;-66
2022/05/20 14:56:58;;;;;;;;;;;;;;;;;;5033368;28;19929;-66
2022/05/20 14:59:23;;;;;;;;;;;;;;;;;;5032072;28;19921;-66
2022/05/20 15:01:49;;;;;;;;;;;;;;;;;;5031527;28;19980;-67
2022/05/20 15:04:15;;;;;;;;;;;;;;;;;;5031484;28;19961;-66
2022/05/20 15:06:43;;;;;;;;;;;;;;;;;;5030906;28;19925;-66
2022/05/20 15:09:09;;;;;;;;;;;;;;;;;;5033131;28;19921;-66
2022/05/20 15:11:35;;;;;;;;;;;;;;;;;;5031510;28;19921;-66
2022/05/20 15:14:01;;;;;;;;;;;;;;;;;;5031051;28;19960;-66
2022/05/20 15:16:27;;;;;;;;;;;;;;;;;;5031376;28;19925;-66
2022/05/20 15:18:53;;;;;;;;;;;;;;;;;;5032836;28;19921;-66
2022/05/20 15:21:19;;;;;;;;;;;;;;;;;;5030784;28;19971;-66
2022/05/20 15:23:45;;;;;;;;;;;;;;;;;;5031342;28;19956;-66
2022/05/20 15:26:11;;;;;;;;;;;;;;;;;;5031365;28;19925;-66
2022/05/20 15:28:51;;;;;;;;;;;;;;;;;;5030564;28;19924;-66
2022/05/20 15:36:46;;;;;;;;;;;;;;;;;;5047072;28;19921;-66
2022/05/20 15:39:12;;;;;;;;;;;;;;;;;;5031326;28;19931;-67
2022/05/20 15:41:38;;;;;;;;;;;;;;;;;;5031061;28;20016;-66
2022/05/20 15:44:04;;;;;;;;;;;;;;;;;;5030416;28;19975;-66
2022/05/20 15:46:30;;;;;;;;;;;;;;;;;;5031081;28;19925;-66
2022/05/20 15:48:56;;;;;;;;;;;;;;;;;;5031038;28;19987;-66
2022/05/20 15:51:22;;;;;;;;;;;;;;;;;;5030392;28;19921;-66
2022/05/20 15:53:48;;;;;;;;;;;;;;;;;;5031008;28;19951;-66
2022/05/20 15:56:14;;;;;;;;;;;;;;;;;;5030855;28;19921;-66
2022/05/20 15:58:40;;;;;;;;;;;;;;;;;;5029880;28;19982;-66
2022/05/20 16:01:06;;;;;;;;;;;;;;;;;;5030936;28;19921;-66
2022/05/20 16:03:32;;;;;;;;;;;;;;;;;;5030815;28;19956;-66
2022/05/20 16:05:58;;;;;;;;;;;;;;;;;;5031703;28;19921;-66
2022/05/20 16:08:24;;;;;;;;;;;;;;;;;;5030971;28;19928;-66
2022/05/20 16:10:50;;;;;;;;;;;;;;;;;;5031544;28;19968;-66
2022/05/20 16:13:16;;;;;;;;;;;;;;;;;;5030428;28;19921;-68
2022/05/20 16:15:42;;;;;;;;;;;;;;;;;;5031065;28;19944;-68
2022/05/20 16:18:08;;;;;;;;;;;;;;;;;;5030771;28;19921;-68
2022/05/20 16:20:34;;;;;;;;;;;;;;;;;;5030126;28;19943;-68
2022/05/20 16:23:00;;;;;;;;;;;;;;;;;;5030869;28;19921;-68
2022/05/20 16:25:29;;;;;;;;;;;;;;;;;;5030407;28;19925;-68
2022/05/20 16:27:55;;;;;;;;;;;;;;;;;;5029910;28;20016;-68
2022/05/20 16:30:21;;;;;;;;;;;;;;;;;;5030484;28;20020;-68
2022/05/20 16:32:47;;;;;;;;;;;;;;;;;;5030475;28;20134;-68
2022/05/20 16:35:13;;;;;;;;;;;;;;;;;;5029798;28;19969;-68
2022/05/20 16:37:39;;;;;;;;;;;;;;;;;;5030389;28;19927;-68
2022/05/20 16:40:05;;;;;;;;;;;;;;;;;;5031694;28;20330;-68
2022/05/20 16:42:31;;;;;;;;;;;;;;;;;;5035252;28;19928;-68
2022/05/20 16:44:57;;;;;;;;;;;;;;;;;;5035912;28;20040;-68
2022/05/20 16:47:23;;;;;;;;;;;;;;;;;;5034455;28;19947;-68
2022/05/20 16:49:49;;;;;;;;;;;;;;;;;;5035196;28;19921;-68
2022/05/20 16:52:17;;;;;;;;;;;;;;;;;;5035498;28;20008;-68
2022/05/20 16:54:43;;;;;;;;;;;;;;;;;;5035542;28;19925;-68
2022/05/20 17:02:38;;;;;;;;;;;;;;;;;;5035702;28;20386;-66
2022/05/20 17:05:04;;;;;;;;;;;;;;;;;;5034787;28;19936;-66
2022/05/20 17:07:31;;;;;;;;;;;;;;;;;;5035689;28;19936;-66
2022/05/20 17:09:57;;;;;;;;;;;;;;;;;;5033986;28;19971;-66
2022/05/20 17:12:23;;;;;;;;;;;;;;;;;;5034975;28;19961;-66
2022/05/20 17:14:49;;;;;;;;;;;;;;;;;;5035428;28;19921;-66
2022/05/20 17:17:15;;;;;;;;;;;;;;;;;;5033600;28;19932;-66
2022/05/20 17:19:41;;;;;;;;;;;;;;;;;;5033162;28;20008;-66
2022/05/20 17:24:51;;;;;;;;;;;;;;;;;;5035133;28;20625;-66
2022/05/20 17:27:17;;;;;;;;;;;;;;;;;;5032591;28;19983;-66
2022/05/20 17:29:43;;;;;;;;;;;;;;;;;;5033490;28;19944;-66
2022/05/20 17:32:10;;;;;;;;;;;;;;;;;;5035216;28;19921;-66
2022/05/20 17:34:36;;;;;;;;;;;;;;;;;;5032925;28;19950;-66
2022/05/20 17:37:03;;;;;;;;;;;;;;;;;;5033380;28;19975;-66
2022/05/20 17:39:28;;;;;;;;;;;;;;;;;;5034549;28;19960;-66